Time;durP1;ratioP1;P1;durP2;ratioP2;P2;SDS_P1;SDS_P2;PMS_P1;PMS_P2;Temp;Humidity;BMP_temperature;BMP_pressure;BME280_temperature;BME280_humidity;BME280_pressure;Samples;Min_cycle;Max_cycle;Signal;HPM_P1;HPM_P2
2022/01/19 00:00:37;;;;;;;21.17;12.17;;;5.70;99.90;;;;;;5010383;28;20251;-65
2022/01/19 00:03:05;;;;;;;19.23;12.40;;;5.60;99.90;;;;;;5002371;28;20241;-65
2022/01/19 00:05:35;;;;;;;22.50;11.80;;;5.60;99.90;;;;;;4990313;28;20238;-65
2022/01/19 00:08:06;;;;;;;20.87;11.60;;;5.60;99.90;;;;;;4990793;28;20328;-65
2022/01/19 00:10:35;;;;;;;17.87;12.03;;;5.60;99.90;;;;;;4994205;28;20441;-66
2022/01/19 00:13:03;;;;;;;20.77;12.50;;;5.50;99.90;;;;;;4994042;28;20234;-66
2022/01/19 00:15:31;;;;;;;20.67;12.23;;;5.50;99.90;;;;;;4993959;28;20272;-66
2022/01/19 00:17:59;;;;;;;21.40;11.63;;;5.60;99.90;;;;;;4994237;28;20324;-65
2022/01/19 00:20:30;;;;;;;19.77;11.57;;;5.60;99.90;;;;;;5002597;28;20479;-66
2022/01/19 00:23:01;;;;;;;22.17;12.60;;;5.60;99.90;;;;;;4993648;28;20569;-65
2022/01/19 00:25:29;;;;;;;22.10;11.90;;;5.50;99.90;;;;;;4993684;28;20501;-65
2022/01/19 00:27:59;;;;;;;23.40;13.00;;;5.60;99.90;;;;;;4993852;28;20237;-65
2022/01/19 00:30:28;;;;;;;19.80;12.07;;;5.60;99.90;;;;;;5001498;28;20244;-65
2022/01/19 00:32:56;;;;;;;20.73;12.73;;;5.60;99.90;;;;;;5006670;28;20372;-65
2022/01/19 00:35:25;;;;;;;21.00;12.40;;;5.60;99.90;;;;;;5009108;28;20656;-66
2022/01/19 00:37:53;;;;;;;21.20;13.30;;;5.60;99.90;;;;;;4993814;28;20296;-65
2022/01/19 00:40:22;;;;;;;19.60;12.90;;;5.60;99.90;;;;;;5013236;28;20237;-65
2022/01/19 00:42:51;;;;;;;24.77;14.30;;;5.60;99.90;;;;;;5007629;28;20328;-66
2022/01/19 00:45:21;;;;;;;20.03;13.07;;;5.60;99.90;;;;;;4993563;28;20257;-65
2022/01/19 00:47:49;;;;;;;22.30;13.43;;;5.60;99.90;;;;;;4993497;28;20634;-66
2022/01/19 00:50:20;;;;;;;23.07;12.90;;;5.60;99.90;;;;;;4993353;28;20316;-66
2022/01/19 00:52:51;;;;;;;24.17;14.17;;;5.50;99.90;;;;;;5013961;28;20503;-65
2022/01/19 00:55:23;;;;;;;24.67;13.73;;;5.60;99.90;;;;;;5008408;28;21039;-66
2022/01/19 00:57:52;;;;;;;23.47;13.47;;;5.50;99.90;;;;;;4993472;28;20245;-65
2022/01/19 01:00:29;;;;;;;19.97;13.53;;;5.50;99.90;;;;;;5012427;28;20690;-65
2022/01/19 01:02:57;;;;;;;23.40;14.13;;;5.40;99.90;;;;;;5005872;28;20240;-65
2022/01/19 01:05:29;;;;;;;22.40;12.70;;;5.50;99.90;;;;;;4992784;28;20331;-65
2022/01/19 01:07:57;;;;;;;23.30;13.87;;;5.50;99.90;;;;;;4993134;28;20237;-65
2022/01/19 01:10:27;;;;;;;24.43;14.23;;;5.50;99.90;;;;;;4993626;28;20304;-64
2022/01/19 01:13:06;;;;;;;22.63;14.03;;;5.50;99.90;;;;;;4993535;28;20293;-66
2022/01/19 01:15:47;;;;;;;25.97;13.67;;;5.50;99.90;;;;;;4992797;28;20240;-65
2022/01/19 01:18:20;;;;;;;19.37;12.70;;;5.60;99.90;;;;;;5010217;28;20276;-66
2022/01/19 01:20:56;;;;;;;26.87;13.93;;;5.60;99.90;;;;;;4997828;28;20635;-65
2022/01/19 01:23:27;;;;;;;28.07;13.87;;;5.50;99.90;;;;;;4994525;28;20241;-65
2022/01/19 01:25:57;;;;;;;26.50;13.93;;;5.50;99.90;;;;;;5007759;28;20268;-65
2022/01/19 01:28:25;;;;;;;29.43;14.73;;;5.40;99.90;;;;;;5007735;28;20252;-63
2022/01/19 01:30:55;;;;;;;23.63;13.27;;;5.40;99.90;;;;;;5007611;28;20261;-66
2022/01/19 01:33:23;;;;;;;27.97;13.40;;;5.40;99.90;;;;;;4991477;28;20238;-65
2022/01/19 01:35:51;;;;;;;30.80;15.50;;;5.50;99.90;;;;;;5007825;28;20628;-65
2022/01/19 01:38:23;;;;;;;29.07;13.57;;;5.40;99.90;;;;;;5010743;28;20236;-66
2022/01/19 01:41:14;;;;;;;29.90;14.47;;;5.40;99.90;;;;;;5010640;28;20251;-66
2022/01/19 01:43:52;;;;;;;29.50;13.90;;;5.40;99.90;;;;;;5013045;28;20240;-65
2022/01/19 01:46:33;;;;;;;32.90;14.60;;;5.40;99.90;;;;;;4991422;28;20241;-66
2022/01/19 01:49:01;;;;;;;30.53;15.07;;;5.40;99.90;;;;;;5006942;28;20243;-65
2022/01/19 01:54:18;;;;;;;30.13;14.57;;;5.30;99.90;;;;;;5009520;28;20726;-65
2022/01/19 01:56:47;;;;;;;32.27;14.50;;;5.30;99.90;;;;;;4990843;28;20735;-66
2022/01/19 01:59:16;;;;;;;33.93;14.80;;;5.30;99.90;;;;;;5017570;28;20317;-66
2022/01/19 02:01:54;;;;;;;33.03;14.97;;;5.30;99.90;;;;;;5006847;28;20263;-66
2022/01/19 02:04:23;;;;;;;32.03;15.20;;;5.40;99.90;;;;;;4981894;28;20381;-65
2022/01/19 02:07:31;;;;;;;35.83;15.30;;;5.30;99.90;;;;;;5002996;28;20249;-65
2022/01/19 02:09:59;;;;;;;35.77;16.13;;;5.30;99.90;;;;;;4965778;28;20249;-66
2022/01/19 02:23:39;;;;;;;37.43;17.53;;;5.10;99.90;;;;;;4972340;28;20544;-66
2022/01/19 02:26:12;;;;;;;39.60;18.67;;;5.10;99.90;;;;;;5006705;28;20724;-66
2022/01/19 02:40:12;;;;;;;43.00;18.57;;;5.10;99.90;;;;;;5006197;28;20244;-66
2022/01/19 02:42:54;;;;;;;39.93;19.43;;;5.10;99.90;;;;;;5021200;28;20257;-64
2022/01/19 02:50:59;;;;;;;49.83;24.80;;;5.10;99.90;;;;;;4972203;28;20234;-65
2022/01/19 02:53:28;;;;;;;59.30;27.13;;;5.10;99.90;;;;;;4972001;28;20752;-66
2022/01/19 02:55:58;;;;;;;53.67;28.03;;;5.10;99.90;;;;;;4972224;28;20476;-65
2022/01/19 02:58:29;;;;;;;59.57;30.07;;;5.10;99.90;;;;;;4990459;28;20484;-65
2022/01/19 03:08:43;;;;;;;69.20;35.47;;;5.20;99.90;;;;;;4971571;28;20234;-64
2022/01/19 03:09:22;;;;;;;71.70;35.00;;;5.10;99.90;;;;;;4970451;28;20241;-66
2022/01/19 03:11:50;;;;;;;67.97;34.00;;;5.00;99.90;;;;;;4994240;28;20495;-66
2022/01/19 03:14:19;;;;;;;62.27;33.17;;;5.00;99.90;;;;;;4991284;28;20605;-66
2022/01/19 03:16:47;;;;;;;58.17;31.37;;;5.00;99.90;;;;;;4990946;28;20240;-66
2022/01/19 03:19:16;;;;;;;57.80;29.00;;;5.00;99.90;;;;;;5018791;28;20241;-65
2022/01/19 03:21:44;;;;;;;53.27;28.20;;;5.00;99.90;;;;;;5025612;28;20261;-65
2022/01/19 03:24:13;;;;;;;44.37;23.23;;;5.00;99.90;;;;;;5008524;28;20241;-65
2022/01/19 03:26:42;;;;;;;41.63;21.67;;;4.90;99.90;;;;;;4991109;28;20500;-65
2022/01/19 03:29:16;;;;;;;41.03;20.57;;;4.90;99.90;;;;;;5005933;28;20476;-65
2022/01/19 03:31:46;;;;;;;39.03;21.27;;;5.00;99.90;;;;;;5008669;28;20487;-66
2022/01/19 03:34:16;;;;;;;38.67;19.67;;;4.90;99.90;;;;;;5008370;28;20473;-65
2022/01/19 03:36:49;;;;;;;35.67;19.43;;;4.90;99.90;;;;;;5005975;28;20916;-66
2022/01/19 03:39:17;;;;;;;34.03;20.33;;;5.00;99.90;;;;;;5016299;28;20302;-66
2022/01/19 03:41:46;;;;;;;36.13;18.87;;;5.20;99.90;;;;;;5025636;28;20286;-66
2022/01/19 03:44:14;;;;;;;33.70;17.47;;;5.20;99.90;;;;;;4995575;28;20527;-66
2022/01/19 03:46:54;;;;;;;31.30;19.00;;;5.20;99.90;;;;;;5009292;28;20483;-66
2022/01/19 03:49:25;;;;;;;35.37;18.10;;;5.10;99.90;;;;;;5000275;28;20475;-66
2022/01/19 03:51:58;;;;;;;32.33;18.03;;;5.00;99.90;;;;;;5029611;28;21013;-66
2022/01/19 03:54:31;;;;;;;32.53;18.43;;;5.00;99.90;;;;;;5009935;28;20489;-66
2022/01/19 03:57:01;;;;;;;30.27;17.03;;;5.10;99.90;;;;;;5009644;28;20889;-66
2022/01/19 03:59:32;;;;;;;37.07;18.43;;;5.00;99.90;;;;;;5005366;28;20491;-66
2022/01/19 04:02:02;;;;;;;35.53;18.80;;;5.00;99.90;;;;;;5014163;28;20528;-66
2022/01/19 04:04:39;;;;;;;35.33;19.10;;;5.00;99.90;;;;;;4992978;28;20511;-66
2022/01/19 04:07:29;;;;;;;35.27;17.37;;;5.10;99.90;;;;;;5008627;28;20579;-66
2022/01/19 04:09:57;;;;;;;35.37;18.93;;;5.20;99.90;;;;;;4993218;28;20486;-66
2022/01/19 04:12:42;;;;;;;33.90;17.47;;;5.10;99.90;;;;;;4992629;28;20481;-66
2022/01/19 04:15:15;;;;;;;42.50;19.47;;;5.20;99.90;;;;;;5009000;28;20497;-66
2022/01/19 04:17:49;;;;;;;37.87;19.53;;;5.10;99.90;;;;;;5008515;28;20481;-66
2022/01/19 04:20:18;;;;;;;36.27;18.90;;;5.10;99.90;;;;;;4994716;28;20487;-66
2022/01/19 04:22:46;;;;;;;35.53;19.40;;;5.00;99.90;;;;;;4994063;28;20480;-66
2022/01/19 04:25:15;;;;;;;30.47;16.90;;;5.00;99.90;;;;;;5009172;28;20507;-66
2022/01/19 04:27:45;;;;;;;31.77;17.33;;;5.00;99.90;;;;;;4992381;28;20492;-66
2022/01/19 04:30:15;;;;;;;33.97;16.93;;;5.00;99.90;;;;;;5008826;28;20481;-66
2022/01/19 04:33:09;;;;;;;35.57;19.13;;;5.00;99.90;;;;;;5008539;28;20492;-66
2022/01/19 04:35:50;;;;;;;37.23;16.57;;;4.90;99.90;;;;;;5008945;28;20483;-66
2022/01/19 04:47:44;;;;;;;34.60;17.83;;;5.00;99.90;;;;;;4969870;28;20481;-66
2022/01/19 05:01:44;;;;;;;31.17;16.23;;;5.00;99.90;;;;;;4905371;28;20597;-65
2022/01/19 05:04:45;;;;;;;36.23;16.30;;;5.00;99.90;;;;;;4992856;28;20473;-66
2022/01/19 05:07:31;;;;;;;35.80;15.67;;;5.00;99.90;;;;;;5007465;28;20885;-66
2022/01/19 05:13:23;;;;;;;31.50;14.40;;;5.00;99.90;;;;;;5008511;28;20244;-66
2022/01/19 05:15:38;;;;;;;26.03;13.13;;;4.90;99.90;;;;;;4992916;28;20232;-66
2022/01/19 05:18:13;;;;;;;25.80;12.57;;;4.80;99.90;;;;;;4992764;28;20953;-64
2022/01/19 05:20:41;;;;;;;26.83;13.07;;;4.90;99.90;;;;;;4988616;28;20831;-65
2022/01/19 05:23:14;;;;;;;20.10;11.47;;;4.90;99.90;;;;;;4980691;28;20471;-65
2022/01/19 05:25:42;;;;;;;33.20;13.73;;;4.90;99.90;;;;;;4993023;28;20495;-66
2022/01/19 05:28:21;;;;;;;24.97;11.60;;;4.80;99.90;;;;;;4991281;28;20606;-66
2022/01/19 05:30:49;;;;;;;25.13;11.87;;;4.90;99.90;;;;;;4992948;28;20701;-66
2022/01/19 05:33:22;;;;;;;28.23;13.30;;;4.90;99.90;;;;;;4992855;28;20571;-66
2022/01/19 05:35:50;;;;;;;28.53;12.83;;;4.90;99.90;;;;;;5007762;28;21005;-66
2022/01/19 05:38:37;;;;;;;30.37;14.03;;;5.00;99.90;;;;;;4992612;28;20587;-66
2022/01/19 05:41:42;;;;;;;30.07;14.47;;;4.90;99.90;;;;;;4991031;28;20861;-64
2022/01/19 05:44:14;;;;;;;31.60;16.67;;;5.00;99.90;;;;;;5007463;28;20477;-66
2022/01/19 05:46:42;;;;;;;34.33;16.23;;;5.00;99.90;;;;;;4992123;28;20234;-65
2022/01/19 05:49:12;;;;;;;34.20;15.47;;;5.00;99.90;;;;;;5008730;28;20472;-65
2022/01/19 05:51:40;;;;;;;34.40;16.93;;;5.00;99.90;;;;;;5027141;28;20479;-64
2022/01/19 05:54:09;;;;;;;42.53;16.90;;;5.00;99.90;;;;;;5010969;28;20953;-65
2022/01/19 05:56:37;;;;;;;40.00;17.30;;;4.90;99.90;;;;;;4990919;28;20263;-66
2022/01/19 05:59:22;;;;;;;40.67;17.57;;;5.00;99.90;;;;;;4997288;28;20241;-66
2022/01/19 06:01:50;;;;;;;39.17;18.00;;;5.00;99.90;;;;;;5007351;28;20323;-66
2022/01/19 06:04:20;;;;;;;42.20;19.03;;;5.00;99.90;;;;;;4990787;28;20245;-65
2022/01/19 06:07:09;;;;;;;42.97;18.43;;;5.10;99.90;;;;;;5006419;28;20237;-66
2022/01/19 06:10:00;;;;;;;42.60;18.53;;;5.00;99.90;;;;;;5006739;28;20501;-65
2022/01/19 06:12:31;;;;;;;40.97;18.13;;;5.00;99.90;;;;;;5007029;28;20476;-66
2022/01/19 06:15:00;;;;;;;42.73;18.90;;;5.10;99.90;;;;;;4990743;28;20313;-65
2022/01/19 06:17:28;;;;;;;47.07;19.10;;;5.10;99.90;;;;;;4989624;28;20272;-66
2022/01/19 06:20:00;;;;;;;40.03;19.03;;;5.00;99.90;;;;;;4992400;28;20471;-66
2022/01/19 06:22:28;;;;;;;40.97;18.27;;;5.00;99.90;;;;;;4989790;28;20504;-66
2022/01/19 06:24:58;;;;;;;41.00;19.87;;;5.00;99.90;;;;;;4990069;28;20693;-65
2022/01/19 06:27:28;;;;;;;41.77;18.77;;;5.10;99.90;;;;;;4990243;28;20519;-65
2022/01/19 06:29:56;;;;;;;48.00;21.10;;;5.10;99.90;;;;;;4990168;28;20480;-66
2022/01/19 06:32:27;;;;;;;46.80;21.73;;;5.10;99.90;;;;;;5006235;28;20481;-66
2022/01/19 06:34:56;;;;;;;40.40;20.20;;;5.10;99.90;;;;;;4989887;28;20865;-66
2022/01/19 06:37:26;;;;;;;46.50;20.03;;;5.00;99.90;;;;;;4991615;28;20325;-65
2022/01/19 06:40:34;;;;;;;43.63;21.57;;;5.10;99.90;;;;;;4982802;28;20241;-65
2022/01/19 06:43:03;;;;;;;41.90;20.93;;;5.20;99.90;;;;;;4987455;28;20240;-65
2022/01/19 06:45:31;;;;;;;46.13;20.03;;;5.10;99.90;;;;;;4989591;28;20325;-67
2022/01/19 06:48:00;;;;;;;44.23;21.30;;;5.10;99.90;;;;;;5017023;28;20480;-66
2022/01/19 06:50:31;;;;;;;45.73;21.67;;;5.10;99.90;;;;;;5007449;28;20487;-66
2022/01/19 06:53:02;;;;;;;47.13;21.70;;;5.10;99.90;;;;;;4990767;28;20839;-65
2022/01/19 06:55:31;;;;;;;49.73;22.60;;;5.10;99.90;;;;;;5002555;28;20253;-66
2022/01/19 06:58:01;;;;;;;45.03;22.13;;;5.10;99.90;;;;;;5010801;28;20595;-65
2022/01/19 07:00:46;;;;;;;45.67;21.83;;;5.10;99.90;;;;;;4986164;28;20480;-66
2022/01/19 07:03:35;;;;;;;51.10;23.37;;;5.10;99.90;;;;;;4989732;28;20259;-65
2022/01/19 07:06:23;;;;;;;50.57;25.30;;;5.10;99.90;;;;;;5004539;28;20609;-65
2022/01/19 07:09:12;;;;;;;50.77;25.63;;;5.10;99.90;;;;;;4992397;28;20556;-66
2022/01/19 07:11:48;;;;;;;53.97;27.40;;;5.10;99.90;;;;;;5004041;28;20849;-66
2022/01/19 07:14:18;;;;;;;56.93;26.67;;;5.10;99.90;;;;;;4989976;28;20248;-66
2022/01/19 07:16:48;;;;;;;54.40;26.93;;;5.10;99.90;;;;;;5003849;28;20658;-66
2022/01/19 07:19:17;;;;;;;58.27;28.80;;;5.00;99.90;;;;;;4991206;28;20508;-65
2022/01/19 07:21:50;;;;;;;53.97;27.67;;;5.00;99.90;;;;;;5004940;28;20478;-65
2022/01/19 07:24:20;;;;;;;57.77;28.83;;;5.00;99.90;;;;;;5006363;28;20885;-65
2022/01/19 07:26:48;;;;;;;61.53;30.53;;;5.00;99.90;;;;;;4995500;28;20476;-66
2022/01/19 07:29:22;;;;;;;61.90;30.40;;;5.00;99.90;;;;;;5016755;28;20504;-66
2022/01/19 07:31:56;;;;;;;59.67;29.60;;;5.00;99.90;;;;;;4993060;28;20236;-66
2022/01/19 07:34:26;;;;;;;54.63;28.93;;;5.00;99.90;;;;;;5008445;28;20233;-66
2022/01/19 07:36:55;;;;;;;59.33;30.90;;;5.00;99.90;;;;;;5002045;28;20504;-65
2022/01/19 07:39:25;;;;;;;67.30;32.33;;;5.00;99.90;;;;;;5009744;28;20516;-66
2022/01/19 07:41:55;;;;;;;57.73;29.20;;;5.00;99.90;;;;;;4995793;28;20628;-65
2022/01/19 07:44:42;;;;;;;62.23;30.97;;;4.90;99.90;;;;;;4998049;28;20479;-65
2022/01/19 07:47:23;;;;;;;66.53;31.83;;;5.00;99.90;;;;;;5008632;28;20831;-65
2022/01/19 07:50:05;;;;;;;65.73;32.77;;;5.00;99.90;;;;;;4994269;28;20491;-65
2022/01/19 07:53:09;;;;;;;57.03;30.63;;;5.00;99.90;;;;;;4988532;28;20248;-65
2022/01/19 07:55:50;;;;;;;62.37;31.83;;;5.00;99.90;;;;;;5004859;28;20545;-64
2022/01/19 07:58:33;;;;;;;57.30;30.97;;;5.00;99.90;;;;;;5005071;28;20488;-64
2022/01/19 08:01:18;;;;;;;57.77;30.80;;;5.00;99.90;;;;;;5003995;28;20997;-65
2022/01/19 08:04:05;;;;;;;56.80;29.20;;;5.00;99.90;;;;;;5008938;28;20479;-65
2022/01/19 08:06:40;;;;;;;59.87;29.83;;;5.00;99.90;;;;;;4994061;28;20960;-65
2022/01/19 08:09:09;;;;;;;58.70;32.33;;;5.00;99.90;;;;;;5003051;28;20554;-65
2022/01/19 08:11:38;;;;;;;60.50;32.27;;;5.00;99.90;;;;;;4983588;28;20555;-65
2022/01/19 08:14:24;;;;;;;55.50;30.87;;;5.00;99.90;;;;;;4987074;28;20484;-65
2022/01/19 08:16:53;;;;;;;63.80;32.93;;;5.00;99.90;;;;;;5003216;28;20908;-65
2022/01/19 08:19:23;;;;;;;57.93;30.87;;;5.00;99.90;;;;;;4993424;28;21396;-65
2022/01/19 08:21:51;;;;;;;61.40;32.30;;;5.00;99.90;;;;;;4988739;28;20488;-65
2022/01/19 08:24:20;;;;;;;57.20;32.33;;;5.00;99.90;;;;;;5003659;28;20244;-64
2022/01/19 08:26:54;;;;;;;57.97;31.10;;;5.00;99.90;;;;;;5003049;28;20475;-65
2022/01/19 08:29:27;;;;;;;62.50;32.40;;;5.00;99.90;;;;;;5002826;28;20372;-65
2022/01/19 08:32:00;;;;;;;59.90;32.13;;;5.00;99.90;;;;;;4988665;28;21421;-64
2022/01/19 08:35:10;;;;;;;64.20;32.73;;;5.00;99.90;;;;;;4983136;28;20244;-66
2022/01/19 08:37:58;;;;;;;66.70;32.83;;;5.00;99.90;;;;;;4988347;28;20518;-65
2022/01/19 08:40:30;;;;;;;61.37;32.10;;;5.00;99.90;;;;;;5003432;28;20480;-65
2022/01/19 08:43:18;;;;;;;60.50;33.10;;;5.10;99.90;;;;;;5002892;28;21004;-65
2022/01/19 08:45:48;;;;;;;64.20;33.60;;;5.10;99.90;;;;;;5002052;28;20473;-66
2022/01/19 08:48:20;;;;;;;60.13;32.27;;;5.10;99.90;;;;;;4986400;28;20993;-66
2022/01/19 08:50:51;;;;;;;63.27;34.40;;;5.10;99.90;;;;;;4991611;28;20487;-63
2022/01/19 08:53:46;;;;;;;63.53;33.57;;;5.10;99.90;;;;;;4988200;28;20736;-65
2022/01/19 08:56:36;;;;;;;61.77;32.13;;;5.10;99.90;;;;;;5001863;28;20495;-65
2022/01/19 08:59:06;;;;;;;59.07;32.10;;;5.10;99.90;;;;;;4988003;28;20242;-65
2022/01/19 09:01:34;;;;;;;64.60;34.77;;;5.20;99.90;;;;;;4988048;28;20473;-65
2022/01/19 09:04:05;;;;;;;62.63;34.30;;;5.20;99.90;;;;;;4987835;28;20482;-65
2022/01/19 09:06:34;;;;;;;64.30;34.33;;;5.20;99.90;;;;;;4986274;28;20233;-65
2022/01/19 09:09:02;;;;;;;58.47;32.93;;;5.20;99.90;;;;;;4988425;28;20983;-64
2022/01/19 09:11:32;;;;;;;59.17;32.60;;;5.20;99.90;;;;;;4987248;28;20493;-65
2022/01/19 09:14:02;;;;;;;59.17;31.40;;;5.20;99.90;;;;;;4987878;28;20598;-66
2022/01/19 09:16:32;;;;;;;57.07;30.93;;;5.20;99.90;;;;;;4986004;28;20804;-65
2022/01/19 09:19:01;;;;;;;60.17;32.50;;;5.30;99.90;;;;;;4987556;28;20331;-65
2022/01/19 09:21:29;;;;;;;53.60;31.00;;;5.20;99.90;;;;;;4987471;28;20253;-65
2022/01/19 09:23:58;;;;;;;56.43;31.13;;;5.20;99.90;;;;;;4987610;28;20246;-65
2022/01/19 09:26:26;;;;;;;50.10;30.33;;;5.30;99.90;;;;;;4985159;28;20721;-64
2022/01/19 09:28:54;;;;;;;56.80;32.50;;;5.30;99.90;;;;;;4987319;28;20268;-64
2022/01/19 09:31:35;;;;;;;55.33;31.43;;;5.30;99.90;;;;;;4987354;28;20928;-64
2022/01/19 09:34:08;;;;;;;60.50;31.17;;;5.30;99.90;;;;;;4987147;28;20535;-64
2022/01/19 09:36:44;;;;;;;54.00;30.57;;;5.40;99.90;;;;;;4985948;28;20859;-65
2022/01/19 09:39:17;;;;;;;55.60;30.33;;;5.40;99.90;;;;;;4986649;28;20249;-64
2022/01/19 09:41:46;;;;;;;55.07;29.80;;;5.40;99.90;;;;;;4985535;28;20657;-65
2022/01/19 09:44:15;;;;;;;60.70;32.17;;;5.30;99.90;;;;;;4987178;28;20249;-65
2022/01/19 09:46:45;;;;;;;64.07;33.63;;;5.40;99.90;;;;;;4984736;28;20241;-65
2022/01/19 09:49:19;;;;;;;57.43;31.63;;;5.40;99.90;;;;;;4987144;28;20296;-64
2022/01/19 09:51:50;;;;;;;61.27;32.37;;;5.30;99.90;;;;;;4987032;28;20649;-65
2022/01/19 09:54:24;;;;;;;63.53;32.53;;;5.30;99.90;;;;;;4986592;28;20249;-65
2022/01/19 09:56:54;;;;;;;58.33;31.53;;;5.30;99.90;;;;;;4984774;28;20494;-64
2022/01/19 09:59:22;;;;;;;59.20;33.17;;;5.30;99.90;;;;;;4986531;28;20245;-65
2022/01/19 10:01:55;;;;;;;57.57;31.17;;;5.30;99.90;;;;;;4986566;28;20529;-64
2022/01/19 10:04:25;;;;;;;56.57;30.77;;;5.30;99.90;;;;;;4986669;28;20257;-65
2022/01/19 10:07:12;;;;;;;50.53;30.47;;;5.20;99.90;;;;;;4984903;28;21139;-65
2022/01/19 10:09:54;;;;;;;56.10;29.53;;;5.20;99.90;;;;;;4986510;28;20299;-64
2022/01/19 10:18:14;;;;;;;50.80;29.37;;;5.20;99.90;;;;;;4986635;28;20294;-65
2022/01/19 10:20:43;;;;;;;46.13;25.53;;;5.20;99.90;;;;;;4985729;28;20512;-64
2022/01/19 10:23:39;;;;;;;47.73;29.63;;;5.20;99.90;;;;;;4986571;28;20253;-65
2022/01/19 10:26:13;;;;;;;49.43;28.97;;;5.20;99.90;;;;;;4984373;28;20563;-65
2022/01/19 10:28:59;;;;;;;45.00;28.73;;;5.20;99.90;;;;;;4986190;28;20583;-65
2022/01/19 10:31:28;;;;;;;45.93;28.17;;;5.20;99.90;;;;;;4985952;28;20249;-65
2022/01/19 10:34:17;;;;;;;45.50;28.43;;;5.20;99.90;;;;;;4986546;28;20249;-64
2022/01/19 10:36:47;;;;;;;44.40;26.27;;;5.20;99.90;;;;;;4983360;28;20657;-65
2022/01/19 10:39:16;;;;;;;47.13;28.33;;;5.20;99.90;;;;;;4986126;28;20245;-65
2022/01/19 10:41:58;;;;;;;43.40;27.73;;;5.20;99.90;;;;;;4986276;28;20517;-65
2022/01/19 10:44:34;;;;;;;34.60;23.37;;;5.20;99.90;;;;;;4985601;28;20476;-64
2022/01/19 10:47:39;;;;;;;37.83;24.37;;;5.20;99.90;;;;;;4985277;28;20332;-65
2022/01/19 10:50:09;;;;;;;37.50;23.83;;;5.10;99.90;;;;;;4986042;28;20295;-64
2022/01/19 10:52:40;;;;;;;29.80;21.50;;;5.10;99.90;;;;;;4985928;28;20541;-65
2022/01/19 10:55:10;;;;;;;28.23;20.03;;;5.10;99.90;;;;;;4964120;28;20345;-64
2022/01/19 10:57:41;;;;;;;30.40;20.40;;;5.10;99.90;;;;;;4966776;28;20329;-65
2022/01/19 11:00:18;;;;;;;31.17;20.73;;;5.00;99.90;;;;;;4966359;28;20989;-64
2022/01/19 11:02:48;;;;;;;29.13;20.33;;;5.00;99.90;;;;;;4966133;28;20246;-65
2022/01/19 11:05:19;;;;;;;31.27;22.23;;;5.10;99.90;;;;;;4964351;28;20992;-65
2022/01/19 11:07:47;;;;;;;32.50;21.87;;;5.10;99.90;;;;;;4965589;28;20493;-65
2022/01/19 11:10:22;;;;;;;30.00;21.53;;;5.20;99.90;;;;;;4966093;28;20493;-65
2022/01/19 11:12:55;;;;;;;33.50;23.80;;;5.10;99.90;;;;;;4966500;28;20367;-65
2022/01/19 11:15:23;;;;;;;36.70;23.73;;;5.10;99.90;;;;;;4964131;28;20495;-65
2022/01/19 11:17:51;;;;;;;35.47;22.90;;;5.10;99.90;;;;;;4966671;28;20493;-64
2022/01/19 11:20:24;;;;;;;40.30;26.00;;;5.10;99.90;;;;;;4965687;28;20675;-65
2022/01/19 11:23:06;;;;;;;37.47;24.57;;;5.00;99.90;;;;;;4966050;28;20489;-65
2022/01/19 11:25:46;;;;;;;38.73;25.97;;;5.10;99.90;;;;;;4962119;28;20571;-66
2022/01/19 11:28:26;;;;;;;42.57;27.10;;;5.10;99.90;;;;;;4965841;28;20545;-66
2022/01/19 11:30:57;;;;;;;39.80;26.53;;;5.10;99.90;;;;;;4965381;28;21174;-65
2022/01/19 11:33:27;;;;;;;42.97;29.27;;;5.10;99.90;;;;;;4966080;28;20540;-65
2022/01/19 11:36:00;;;;;;;42.27;29.10;;;5.10;99.90;;;;;;4964110;28;20234;-65
2022/01/19 11:38:44;;;;;;;44.17;29.70;;;5.10;99.90;;;;;;4966138;28;20747;-65
2022/01/19 11:41:46;;;;;;;40.00;28.87;;;5.20;99.90;;;;;;4965699;28;20490;-65
2022/01/19 11:44:21;;;;;;;38.73;27.90;;;5.20;99.90;;;;;;4920624;28;20475;-65
2022/01/19 11:46:53;;;;;;;42.33;29.77;;;5.10;99.90;;;;;;4922638;28;20514;-65
2022/01/19 11:49:45;;;;;;;39.03;27.83;;;5.10;99.90;;;;;;4957251;28;20495;-65
2022/01/19 11:52:19;;;;;;;40.40;28.53;;;5.10;99.90;;;;;;4984046;28;20478;-65
2022/01/19 11:54:48;;;;;;;37.83;27.57;;;5.10;99.90;;;;;;4984051;28;20264;-65
2022/01/19 11:57:18;;;;;;;39.17;28.03;;;5.10;99.90;;;;;;4983789;28;20476;-65
2022/01/19 12:00:21;;;;;;;36.90;26.67;;;5.10;99.90;;;;;;4985393;28;20473;-65
2022/01/19 12:02:52;;;;;;;41.20;27.40;;;5.10;99.90;;;;;;4984801;28;20484;-65
2022/01/19 12:05:42;;;;;;;40.70;28.93;;;5.10;99.90;;;;;;4984692;28;21006;-65
2022/01/19 12:08:32;;;;;;;39.17;29.00;;;5.10;99.90;;;;;;4988286;28;20241;-65
2022/01/19 12:11:12;;;;;;;41.00;29.27;;;5.10;99.90;;;;;;4988672;28;21026;-65
2022/01/19 12:13:56;;;;;;;40.63;28.83;;;5.10;99.90;;;;;;4989321;28;20479;-65
2022/01/19 12:16:47;;;;;;;40.43;28.63;;;5.00;99.90;;;;;;4986700;28;20245;-65
2022/01/19 12:19:23;;;;;;;39.77;27.03;;;5.00;99.90;;;;;;4988278;28;20492;-66
2022/01/19 12:21:56;;;;;;;40.83;27.47;;;5.00;99.90;;;;;;4988962;28;20245;-66
2022/01/19 12:24:41;;;;;;;42.10;29.73;;;5.00;99.90;;;;;;4986956;28;20833;-65
2022/01/19 12:27:24;;;;;;;40.93;28.43;;;4.90;99.90;;;;;;4987110;28;20507;-65
2022/01/19 12:30:09;;;;;;;40.63;27.37;;;5.00;99.90;;;;;;4987559;28;20523;-65
2022/01/19 12:32:47;;;;;;;42.70;27.93;;;5.00;99.90;;;;;;4988174;28;20476;-65
2022/01/19 12:35:23;;;;;;;45.73;29.70;;;4.90;99.90;;;;;;4985418;28;20254;-65
2022/01/19 12:37:53;;;;;;;41.23;27.37;;;5.00;99.90;;;;;;4988185;28;20476;-65
2022/01/19 12:40:48;;;;;;;43.70;29.83;;;4.90;99.90;;;;;;4987559;28;20488;-66
2022/01/19 12:43:43;;;;;;;44.97;28.10;;;4.90;99.90;;;;;;4987876;28;20473;-66
2022/01/19 12:46:12;;;;;;;45.07;29.47;;;5.00;99.90;;;;;;4971567;28;20489;-65
2022/01/19 12:48:46;;;;;;;46.43;30.13;;;5.00;99.90;;;;;;4987266;28;20484;-65
2022/01/19 12:51:33;;;;;;;46.03;29.17;;;4.90;99.90;;;;;;4987083;28;20489;-65
2022/01/19 12:54:03;;;;;;;44.70;29.73;;;5.00;99.90;;;;;;4981382;28;20846;-65
2022/01/19 12:56:57;;;;;;;41.40;28.67;;;5.00;99.90;;;;;;4984523;28;20554;-65
2022/01/19 12:59:26;;;;;;;49.17;29.93;;;5.00;99.90;;;;;;4986624;28;20554;-65
2022/01/19 13:01:55;;;;;;;48.97;30.57;;;5.00;99.90;;;;;;4986580;28;20476;-65
2022/01/19 13:04:25;;;;;;;48.30;31.93;;;5.00;99.90;;;;;;4987270;28;20538;-64
2022/01/19 13:06:54;;;;;;;48.40;31.70;;;5.00;99.90;;;;;;4984720;28;20571;-65
2022/01/19 13:09:29;;;;;;;50.93;31.87;;;4.90;99.90;;;;;;4987482;28;20496;-65
2022/01/19 13:12:11;;;;;;;51.97;31.87;;;5.00;99.90;;;;;;4987888;28;20613;-65
2022/01/19 13:14:39;;;;;;;46.53;30.33;;;5.00;99.90;;;;;;4986296;28;20521;-64
2022/01/19 13:17:07;;;;;;;48.47;32.23;;;4.90;99.90;;;;;;4970783;28;20478;-65
2022/01/19 13:20:08;;;;;;;47.20;31.67;;;5.00;99.90;;;;;;4968226;28;20478;-65
2022/01/19 13:22:44;;;;;;;50.37;31.40;;;5.00;99.90;;;;;;4967849;28;20477;-64
2022/01/19 13:25:21;;;;;;;44.53;31.17;;;4.90;99.90;;;;;;4965027;28;20508;-65
2022/01/19 13:27:54;;;;;;;47.63;32.53;;;5.00;99.90;;;;;;4967951;28;20492;-65
2022/01/19 13:30:29;;;;;;;48.80;31.50;;;5.00;99.90;;;;;;4967981;28;21426;-65
2022/01/19 13:32:58;;;;;;;49.77;31.33;;;5.00;99.90;;;;;;4967548;28;20890;-65
2022/01/19 13:35:28;;;;;;;51.80;33.20;;;5.00;99.90;;;;;;4964966;28;20481;-65
2022/01/19 13:37:58;;;;;;;48.20;32.10;;;5.00;99.90;;;;;;4967662;28;20977;-65
2022/01/19 13:40:30;;;;;;;48.40;31.73;;;5.00;99.90;;;;;;4967742;28;20541;-65
2022/01/19 13:43:05;;;;;;;51.97;32.20;;;5.00;99.90;;;;;;4967499;28;20512;-65
2022/01/19 13:45:47;;;;;;;49.07;31.83;;;5.00;99.90;;;;;;4965331;28;20524;-64
2022/01/19 13:48:28;;;;;;;49.20;31.70;;;5.10;99.90;;;;;;4975013;28;20520;-65
2022/01/19 13:51:00;;;;;;;51.30;33.37;;;5.10;99.90;;;;;;4976814;28;20488;-65
2022/01/19 13:53:33;;;;;;;51.67;33.37;;;5.10;99.90;;;;;;4973102;28;20251;-65
2022/01/19 13:56:04;;;;;;;53.50;32.67;;;5.00;99.90;;;;;;4969291;28;20498;-65
2022/01/19 13:58:37;;;;;;;53.13;32.80;;;5.10;99.90;;;;;;4974198;28;20453;-65
2022/01/19 14:01:08;;;;;;;51.40;31.50;;;5.10;99.90;;;;;;4969715;28;20992;-65
2022/01/19 14:03:49;;;;;;;52.83;33.03;;;5.10;99.90;;;;;;4973344;28;20231;-65
2022/01/19 14:06:22;;;;;;;50.63;31.40;;;5.10;99.90;;;;;;4966677;28;20998;-66
2022/01/19 14:08:51;;;;;;;53.57;31.13;;;5.20;99.90;;;;;;4999708;28;20229;-65
2022/01/19 14:11:23;;;;;;;51.80;32.80;;;5.10;99.90;;;;;;4998607;28;20251;-65
2022/01/19 14:14:01;;;;;;;54.23;31.97;;;5.20;99.90;;;;;;4995223;28;20328;-65
2022/01/19 14:16:35;;;;;;;53.53;32.93;;;5.20;99.90;;;;;;4988051;28;20324;-65
2022/01/19 14:19:18;;;;;;;56.70;36.17;;;5.20;99.90;;;;;;4999958;28;20478;-65